Time;durP1;ratioP1;P1;durP2;ratioP2;P2;SDS_P1;SDS_P2;PMS_P1;PMS_P2;Temp;Humidity;BMP_temperature;BMP_pressure;BME280_temperature;BME280_humidity;BME280_pressure;Samples;Min_cycle;Max_cycle;Signal;HPM_P1;HPM_P2
2022/01/18 00:00:54;;;;;;;5.93;2.78;;;-0.80;99.90;;;;;;7384606;19;20382;-76
2022/01/18 00:03:20;;;;;;;5.10;2.80;;;-1.00;99.90;;;;;;7383635;19;20312;-76
2022/01/18 00:05:48;;;;;;;5.43;2.65;;;-1.10;99.90;;;;;;7385885;19;20312;-76
2022/01/18 00:08:15;;;;;;;3.47;2.37;;;-1.10;99.90;;;;;;7384791;19;20321;-76
2022/01/18 00:10:41;;;;;;;6.85;2.53;;;-1.10;99.90;;;;;;7386152;19;20373;-78
2022/01/18 00:13:12;;;;;;;4.72;2.55;;;-1.20;99.90;;;;;;7385003;19;20360;-76
2022/01/18 00:16:11;;;;;;;5.13;2.72;;;-1.20;99.90;;;;;;7385249;19;20324;-78
2022/01/18 00:18:28;;;;;;;4.15;2.30;;;-1.20;99.90;;;;;;7383955;19;20304;-80
2022/01/18 00:23:22;;;;;;;5.50;2.80;;;-1.20;99.90;;;;;;7369441;19;20323;-78
2022/01/18 00:25:52;;;;;;;4.35;2.65;;;-1.20;99.90;;;;;;7385512;19;20852;-77
2022/01/18 00:28:17;;;;;;;8.40;2.70;;;-1.20;99.90;;;;;;7384302;19;21162;-77
2022/01/18 00:36:07;;;;;;;4.82;2.42;;;-1.20;99.90;;;;;;7381954;19;20308;-77
2022/01/18 00:38:44;;;;;;;3.65;2.45;;;-1.20;99.90;;;;;;7381950;19;21090;-77
2022/01/18 00:41:11;;;;;;;5.95;2.65;;;-1.10;99.90;;;;;;7279975;19;2004423;-76
2022/01/18 00:43:38;;;;;;;3.42;2.53;;;-1.30;99.90;;;;;;7383647;19;20337;-77
2022/01/18 00:46:03;;;;;;;8.97;2.90;;;-1.40;99.90;;;;;;7385009;19;20328;-77
2022/01/18 00:48:34;;;;;;;4.00;2.67;;;-1.40;99.90;;;;;;7381253;19;21282;-77
2022/01/18 00:51:00;;;;;;;8.00;2.53;;;-1.50;99.90;;;;;;7383448;19;20340;-76
2022/01/18 00:53:30;;;;;;;3.67;2.20;;;-1.50;99.90;;;;;;7382154;19;20328;-77
2022/01/18 00:56:17;;;;;;;4.43;2.70;;;-1.50;99.90;;;;;;7385574;19;20531;-76
2022/01/18 00:58:44;;;;;;;6.57;2.58;;;-1.50;99.90;;;;;;7280964;19;2004445;-79
2022/01/18 01:01:10;;;;;;;5.00;2.80;;;-1.50;99.90;;;;;;7383486;19;20300;-79
2022/01/18 01:03:36;;;;;;;7.97;2.60;;;-1.50;99.90;;;;;;7380833;19;20336;-81
2022/01/18 01:06:02;;;;;;;4.97;2.50;;;-1.50;99.90;;;;;;7384010;19;20347;-79
2022/01/18 01:08:28;;;;;;;2.63;2.42;;;-1.50;99.90;;;;;;7384145;19;20835;-77
2022/01/18 01:10:54;;;;;;;6.30;2.60;;;-1.50;99.90;;;;;;7383779;19;20329;-81
2022/01/18 01:13:19;;;;;;;6.47;2.60;;;-1.50;99.90;;;;;;7377931;19;20364;-85
2022/01/18 01:18:34;;;;;;;5.75;2.83;;;-1.50;99.90;;;;;;7384808;19;20383;-82
2022/01/18 01:34:59;;;;;;;6.82;2.70;;;-1.60;99.90;;;;;;7381904;19;20309;-79
2022/01/18 01:45:27;;;;;;;5.35;2.63;;;-1.60;99.90;;;;;;7380421;19;20317;-79
2022/01/18 01:47:54;;;;;;;4.75;2.80;;;-1.60;99.90;;;;;;7383844;19;20300;-76
2022/01/18 01:50:21;;;;;;;4.38;2.30;;;-1.60;99.90;;;;;;7386524;19;20415;-80
2022/01/18 01:52:47;;;;;;;5.97;2.27;;;-1.60;99.90;;;;;;7386241;19;20378;-80
2022/01/18 01:55:13;;;;;;;5.85;2.70;;;-1.60;99.90;;;;;;7388369;19;20296;-80
2022/01/18 01:57:39;;;;;;;5.40;2.67;;;-1.60;99.90;;;;;;7388545;19;20328;-85
2022/01/18 02:00:06;;;;;;;6.43;2.70;;;-1.60;99.90;;;;;;7387477;19;20348;-77
2022/01/18 02:02:32;;;;;;;7.13;3.15;;;-1.60;99.90;;;;;;7387678;19;20309;-81
2022/01/18 02:04:59;;;;;;;5.83;2.93;;;-1.60;99.90;;;;;;7388492;19;20674;-78
2022/01/18 02:07:25;;;;;;;6.07;2.50;;;-1.60;99.90;;;;;;7385980;19;20317;-79
2022/01/18 02:09:51;;;;;;;5.20;2.72;;;-1.60;99.90;;;;;;7371351;19;20315;-82
2022/01/18 02:12:20;;;;;;;6.13;2.67;;;-1.50;99.90;;;;;;7385410;19;20876;-79
2022/01/18 02:14:51;;;;;;;6.25;3.10;;;-1.60;99.90;;;;;;7385821;19;20396;-81
2022/01/18 02:22:49;;;;;;;5.17;3.03;;;-1.50;99.90;;;;;;7384790;19;20933;-79
2022/01/18 02:25:14;;;;;;;5.37;2.80;;;-1.50;99.90;;;;;;7387445;19;20312;-84
2022/01/18 02:27:40;;;;;;;7.85;3.40;;;-1.50;99.90;;;;;;7384419;19;20312;-77
2022/01/18 02:30:06;;;;;;;6.60;3.10;;;-1.50;99.90;;;;;;7384040;19;20312;-80
2022/01/18 02:32:32;;;;;;;8.80;3.33;;;-1.50;99.90;;;;;;7386590;19;20349;-77
2022/01/18 02:34:58;;;;;;;6.47;3.07;;;-1.40;99.90;;;;;;7384406;19;20340;-76
2022/01/18 02:37:23;;;;;;;5.70;3.15;;;-1.50;99.90;;;;;;7382968;19;20336;-78
2022/01/18 02:39:49;;;;;;;6.25;2.78;;;-1.40;99.90;;;;;;7385089;19;20322;-75
2022/01/18 02:42:23;;;;;;;7.23;3.37;;;-1.40;99.90;;;;;;7386016;19;20348;-79
2022/01/18 02:44:49;;;;;;;8.57;3.42;;;-1.40;99.90;;;;;;7383015;19;20305;-79
2022/01/18 02:47:17;;;;;;;9.37;3.17;;;-1.40;99.90;;;;;;7387063;19;20333;-78
2022/01/18 02:49:43;;;;;;;6.50;3.13;;;-1.40;99.90;;;;;;7388673;19;20329;-78
2022/01/18 02:52:09;;;;;;;5.37;3.07;;;-1.40;99.90;;;;;;7384519;19;21161;-77
2022/01/18 02:54:34;;;;;;;7.60;3.00;;;-1.40;99.90;;;;;;7385474;19;20508;-78
2022/01/18 02:57:03;;;;;;;5.53;2.95;;;-1.40;99.90;;;;;;7385290;19;20774;-74
2022/01/18 02:59:38;;;;;;;7.47;3.42;;;-1.40;99.90;;;;;;7381225;19;20338;-76
2022/01/18 03:05:04;;;;;;;6.13;2.60;;;-1.50;99.90;;;;;;7285008;19;2004847;-78
2022/01/18 03:07:30;;;;;;;4.65;2.90;;;-1.50;99.90;;;;;;7388634;19;20716;-75
2022/01/18 03:09:56;;;;;;;7.03;3.20;;;-1.50;99.90;;;;;;7392096;19;20343;-74
2022/01/18 03:12:22;;;;;;;5.60;3.00;;;-1.50;99.90;;;;;;7387432;19;20382;-76
2022/01/18 03:14:47;;;;;;;5.40;2.90;;;-1.50;99.90;;;;;;7386622;19;20377;-77
2022/01/18 03:17:13;;;;;;;5.37;3.10;;;-1.50;99.90;;;;;;7383871;19;20373;-79
2022/01/18 03:19:38;;;;;;;4.43;2.87;;;-1.50;99.90;;;;;;7386010;19;20344;-76
2022/01/18 03:22:04;;;;;;;4.38;2.67;;;-1.50;99.90;;;;;;7386482;19;20324;-78
2022/01/18 03:25:00;;;;;;;6.43;3.15;;;-1.50;99.90;;;;;;7382874;19;20333;-76
2022/01/18 03:30:10;;;;;;;4.90;3.13;;;-1.50;99.90;;;;;;7383719;19;20317;-77
2022/01/18 03:32:36;;;;;;;7.10;3.10;;;-1.50;99.90;;;;;;7385238;19;20374;-78
2022/01/18 03:35:03;;;;;;;6.60;3.07;;;-1.50;99.90;;;;;;7385245;19;20344;-78
2022/01/18 03:37:29;;;;;;;8.68;3.03;;;-1.60;99.90;;;;;;7386277;19;20343;-76
2022/01/18 03:39:54;;;;;;;7.35;3.10;;;-1.60;99.90;;;;;;7386553;19;20312;-77
2022/01/18 03:42:37;;;;;;;6.40;2.90;;;-1.60;99.90;;;;;;7386688;19;20373;-81
2022/01/18 03:45:05;;;;;;;5.53;3.10;;;-1.50;99.90;;;;;;7284303;19;2006121;-76
2022/01/18 03:47:31;;;;;;;8.10;3.03;;;-1.60;99.90;;;;;;7388078;19;20371;-77
2022/01/18 03:49:57;;;;;;;6.43;3.20;;;-1.60;99.90;;;;;;7386753;19;20337;-77
2022/01/18 03:52:22;;;;;;;4.53;2.72;;;-1.60;99.90;;;;;;7386082;19;20351;-80
2022/01/18 03:54:50;;;;;;;8.53;3.23;;;-1.60;99.90;;;;;;7370099;19;20320;-79
2022/01/18 03:57:16;;;;;;;8.02;3.30;;;-1.60;99.90;;;;;;7391380;19;21042;-78
2022/01/18 03:59:42;;;;;;;5.75;2.95;;;-1.60;99.90;;;;;;7387324;19;20852;-77
2022/01/18 04:02:08;;;;;;;7.30;3.10;;;-1.60;99.90;;;;;;7382389;19;20649;-78
2022/01/18 04:04:34;;;;;;;4.20;2.63;;;-1.60;99.90;;;;;;7385460;19;20402;-75
2022/01/18 04:07:00;;;;;;;3.63;2.63;;;-1.60;99.90;;;;;;7387930;19;20424;-83
2022/01/18 04:09:26;;;;;;;6.82;2.92;;;-1.70;99.90;;;;;;7388540;19;20312;-76
2022/01/18 04:11:52;;;;;;;6.35;3.30;;;-1.70;99.90;;;;;;7384168;19;20852;-81
2022/01/18 04:14:18;;;;;;;5.82;3.00;;;-1.70;99.90;;;;;;7384439;19;20309;-76
2022/01/18 04:16:59;;;;;;;9.63;3.65;;;-1.70;99.90;;;;;;7384364;19;20313;-80
2022/01/18 04:27:33;;;;;;;8.50;3.40;;;-1.80;99.90;;;;;;7280610;19;2009201;-75
2022/01/18 04:29:59;;;;;;;9.13;3.35;;;-1.80;99.90;;;;;;7383127;19;20325;-76
2022/01/18 04:32:25;;;;;;;8.57;3.30;;;-1.90;99.90;;;;;;7383052;19;20867;-77
2022/01/18 04:34:50;;;;;;;8.60;3.73;;;-1.90;99.90;;;;;;7381637;19;20702;-78
2022/01/18 04:37:16;;;;;;;5.10;3.07;;;-1.80;99.90;;;;;;7383261;19;20317;-79
2022/01/18 04:39:43;;;;;;;6.32;3.60;;;-1.90;99.90;;;;;;7383672;19;20325;-79
2022/01/18 04:42:16;;;;;;;6.00;3.80;;;-1.90;99.90;;;;;;7380329;19;20360;-76
2022/01/18 04:50:11;;;;;;;7.10;3.53;;;-1.90;99.90;;;;;;7284094;19;2009107;-82
2022/01/18 04:52:36;;;;;;;7.17;3.50;;;-1.90;99.90;;;;;;7385037;19;20308;-81
2022/01/18 04:55:03;;;;;;;5.23;2.90;;;-1.90;99.90;;;;;;7380848;19;20365;-80
2022/01/18 05:00:14;;;;;;;8.32;3.38;;;-1.90;99.90;;;;;;7382390;19;20349;-82
2022/01/18 05:02:40;;;;;;;7.35;3.10;;;-1.90;99.90;;;;;;7381032;19;20384;-88
2022/01/18 05:05:06;;;;;;;7.87;3.33;;;-1.90;99.90;;;;;;7380037;19;20374;-76
2022/01/18 05:07:32;;;;;;;5.80;2.93;;;-1.90;99.90;;;;;;7379356;19;20955;-76
2022/01/18 05:09:57;;;;;;;8.30;3.27;;;-1.90;99.90;;;;;;7377939;19;20418;-78
2022/01/18 05:12:47;;;;;;;6.47;3.73;;;-1.80;99.90;;;;;;7378233;19;20390;-78
2022/01/18 05:15:34;;;;;;;10.65;3.75;;;-1.80;99.90;;;;;;7379168;19;21387;-81
2022/01/18 05:20:55;;;;;;;5.65;3.20;;;-1.80;99.90;;;;;;7275288;19;2004475;-84
2022/01/18 05:23:20;;;;;;;5.53;3.22;;;-1.80;99.90;;;;;;7383952;19;20363;-83
2022/01/18 05:25:46;;;;;;;6.20;3.50;;;-1.80;99.90;;;;;;7394417;19;20324;-80
2022/01/18 05:28:12;;;;;;;7.15;3.30;;;-1.90;99.90;;;;;;7393108;19;20662;-76
2022/01/18 05:30:38;;;;;;;5.88;2.97;;;-1.80;99.90;;;;;;7392439;19;20663;-78
2022/01/18 05:33:04;;;;;;;5.77;3.30;;;-1.70;99.90;;;;;;7382877;19;20297;-76
2022/01/18 05:35:29;;;;;;;9.53;3.37;;;-1.80;99.90;;;;;;7392249;19;20360;-81
2022/01/18 05:37:55;;;;;;;6.18;3.60;;;-1.80;99.90;;;;;;7392645;19;20311;-77
2022/01/18 05:40:21;;;;;;;6.93;3.67;;;-1.80;99.90;;;;;;7390163;19;20317;-78
2022/01/18 05:42:46;;;;;;;6.67;3.53;;;-1.80;99.90;;;;;;7389516;19;20312;-78
2022/01/18 05:45:13;;;;;;;6.80;3.53;;;-1.80;99.90;;;;;;7391703;19;20398;-80
2022/01/18 05:47:39;;;;;;;6.47;3.20;;;-1.80;99.90;;;;;;7389166;19;20333;-78
2022/01/18 05:50:05;;;;;;;5.55;3.17;;;-1.80;99.90;;;;;;7389132;19;20324;-77
2022/01/18 05:52:31;;;;;;;6.45;3.60;;;-1.80;99.90;;;;;;7387472;19;20305;-76
2022/01/18 05:54:57;;;;;;;8.30;3.33;;;-1.80;99.90;;;;;;7387222;19;21272;-78
2022/01/18 05:57:22;;;;;;;10.60;3.78;;;-1.80;99.90;;;;;;7390770;19;20316;-78
2022/01/18 05:59:50;;;;;;;7.00;4.05;;;-1.70;99.90;;;;;;7389915;19;20312;-82
2022/01/18 06:02:18;;;;;;;7.35;3.70;;;-1.80;99.90;;;;;;7386888;19;20360;-77
2022/01/18 06:07:28;;;;;;;9.00;3.13;;;-1.80;99.90;;;;;;7389212;19;20380;-76
2022/01/18 06:09:56;;;;;;;7.47;4.03;;;-1.70;99.90;;;;;;7390562;19;20392;-77
2022/01/18 06:12:23;;;;;;;9.20;5.05;;;-1.90;99.90;;;;;;7389426;19;20292;-75
2022/01/18 06:14:48;;;;;;;9.30;4.82;;;-1.90;99.90;;;;;;7386806;19;21014;-74
2022/01/18 06:17:14;;;;;;;6.05;4.18;;;-1.90;99.90;;;;;;7391492;19;20377;-75
2022/01/18 06:19:40;;;;;;;12.07;4.82;;;-1.90;99.90;;;;;;7391831;19;20312;-74
2022/01/18 06:22:06;;;;;;;9.67;4.43;;;-1.90;99.90;;;;;;7388397;19;20317;-75
2022/01/18 06:24:31;;;;;;;4.90;3.22;;;-1.90;99.90;;;;;;7390461;19;21237;-75
2022/01/18 06:26:57;;;;;;;5.83;3.50;;;-1.80;99.90;;;;;;7391534;19;20342;-75
2022/01/18 06:29:22;;;;;;;7.40;3.37;;;-1.80;99.90;;;;;;7391068;19;20843;-76
2022/01/18 06:31:48;;;;;;;8.25;3.80;;;-1.70;99.90;;;;;;7393004;19;20317;-75
2022/01/18 06:34:14;;;;;;;6.78;3.53;;;-1.70;99.90;;;;;;7389499;19;20308;-75
2022/01/18 06:36:43;;;;;;;8.50;3.70;;;-1.70;99.90;;;;;;7389767;19;20333;-78
2022/01/18 06:39:09;;;;;;;6.65;3.58;;;-1.60;99.90;;;;;;7391004;19;20301;-77
2022/01/18 06:41:35;;;;;;;7.93;3.83;;;-1.50;99.90;;;;;;7388741;19;20352;-75
2022/01/18 06:44:01;;;;;;;4.97;3.20;;;-1.60;99.90;;;;;;7386291;19;20956;-76
2022/01/18 06:46:26;;;;;;;7.53;4.38;;;-1.50;99.90;;;;;;7391139;19;20839;-75
2022/01/18 06:48:53;;;;;;;7.43;3.25;;;-1.40;99.90;;;;;;7390101;19;20304;-76
2022/01/18 06:51:19;;;;;;;5.70;3.17;;;-1.50;99.90;;;;;;7393351;19;20326;-79
2022/01/18 06:53:46;;;;;;;8.40;3.28;;;-1.50;99.90;;;;;;7391326;19;20301;-75
2022/01/18 06:56:16;;;;;;;9.30;3.60;;;-1.50;99.90;;;;;;7390461;19;20323;-79
2022/01/18 06:58:42;;;;;;;8.98;3.85;;;-1.50;99.90;;;;;;7391074;19;20963;-76
2022/01/18 07:01:08;;;;;;;9.10;3.72;;;-1.30;99.90;;;;;;7390615;19;20352;-76
2022/01/18 07:03:34;;;;;;;8.82;3.22;;;-1.40;99.90;;;;;;7375263;19;20321;-75
2022/01/18 07:06:00;;;;;;;5.37;3.40;;;-1.40;99.90;;;;;;7392184;19;20336;-75
2022/01/18 07:08:25;;;;;;;7.22;3.67;;;-1.30;99.90;;;;;;7389034;19;20325;-76
2022/01/18 07:10:51;;;;;;;8.03;3.83;;;-1.30;99.90;;;;;;7389649;19;20308;-76
2022/01/18 07:13:16;;;;;;;11.67;3.90;;;-1.30;99.90;;;;;;7390231;19;20311;-75
2022/01/18 07:15:42;;;;;;;8.45;3.30;;;-1.30;99.90;;;;;;7389934;19;20332;-75
2022/01/18 07:18:10;;;;;;;5.83;3.53;;;-1.30;99.90;;;;;;7389328;19;20852;-75
2022/01/18 07:20:36;;;;;;;5.82;3.83;;;-1.30;99.90;;;;;;7386806;19;20333;-75
2022/01/18 07:23:02;;;;;;;6.30;5.05;;;-1.30;99.90;;;;;;7388906;19;20344;-75
2022/01/18 07:25:28;;;;;;;6.83;3.37;;;-1.30;99.90;;;;;;7390120;19;20316;-75
2022/01/18 07:27:53;;;;;;;5.43;3.38;;;-1.30;99.90;;;;;;7388311;19;20309;-75
2022/01/18 07:30:19;;;;;;;7.13;3.80;;;-1.30;99.90;;;;;;7387455;19;20319;-76
2022/01/18 07:32:45;;;;;;;6.00;3.80;;;-1.30;99.90;;;;;;7388131;19;20308;-79
2022/01/18 07:35:12;;;;;;;6.97;3.50;;;-1.30;99.90;;;;;;7388665;19;21191;-78
2022/01/18 07:37:38;;;;;;;4.65;2.90;;;-1.30;99.90;;;;;;7388739;19;20349;-75
2022/01/18 07:40:05;;;;;;;6.05;3.78;;;-1.40;99.90;;;;;;7386470;19;20304;-75
2022/01/18 07:42:31;;;;;;;7.45;3.38;;;-1.40;99.90;;;;;;7386042;19;20357;-75
2022/01/18 07:44:56;;;;;;;8.18;3.60;;;-1.40;99.90;;;;;;7384851;19;20778;-76
2022/01/18 07:47:22;;;;;;;8.65;3.67;;;-1.30;99.90;;;;;;7385412;19;20439;-75
2022/01/18 07:49:48;;;;;;;7.07;3.40;;;-1.40;99.90;;;;;;7386771;19;20340;-75
2022/01/18 07:52:14;;;;;;;5.85;3.30;;;-1.40;99.90;;;;;;7386050;19;20410;-75
2022/01/18 07:54:40;;;;;;;8.48;4.38;;;-1.40;99.90;;;;;;7387392;19;20325;-75
2022/01/18 07:57:05;;;;;;;6.15;3.22;;;-1.40;99.90;;;;;;7389625;19;20335;-75
2022/01/18 07:59:31;;;;;;;11.20;3.80;;;-1.40;99.90;;;;;;7388731;19;20344;-77
2022/01/18 08:01:57;;;;;;;9.73;3.80;;;-1.40;99.90;;;;;;7386535;19;20817;-75
2022/01/18 08:04:22;;;;;;;9.70;4.00;;;-1.30;99.90;;;;;;7386828;19;20332;-76
2022/01/18 08:06:48;;;;;;;10.15;5.32;;;-1.30;99.90;;;;;;7387446;19;20662;-75
2022/01/18 08:09:18;;;;;;;7.37;4.77;;;-1.30;99.90;;;;;;7387619;19;20893;-77
2022/01/18 08:11:45;;;;;;;8.48;5.10;;;-1.20;99.90;;;;;;7390648;19;20320;-79
2022/01/18 08:14:13;;;;;;;11.43;4.55;;;-1.20;99.90;;;;;;7388358;19;20317;-77
2022/01/18 08:17:04;;;;;;;6.80;3.97;;;-1.20;99.90;;;;;;7387775;19;20308;-75
2022/01/18 08:19:35;;;;;;;9.40;5.68;;;-1.10;99.90;;;;;;7284738;19;2007128;-76
2022/01/18 08:22:01;;;;;;;5.78;3.80;;;-1.10;99.90;;;;;;7385004;19;20357;-75
2022/01/18 08:24:26;;;;;;;8.27;3.72;;;-1.00;99.90;;;;;;7382718;19;20328;-76
2022/01/18 08:26:52;;;;;;;6.30;3.80;;;-1.00;99.90;;;;;;7386176;19;20336;-76
2022/01/18 08:29:18;;;;;;;5.68;3.53;;;-0.90;99.90;;;;;;7369543;19;20332;-76
2022/01/18 08:31:44;;;;;;;6.72;4.25;;;-0.90;99.90;;;;;;7382836;19;20331;-76
2022/01/18 08:34:09;;;;;;;10.50;5.88;;;-0.90;99.90;;;;;;7387025;19;20297;-76
2022/01/18 08:36:36;;;;;;;15.33;7.20;;;-0.80;99.90;;;;;;7385289;19;20304;-76
2022/01/18 08:39:02;;;;;;;10.65;6.13;;;-0.80;99.90;;;;;;7385537;19;20361;-76
2022/01/18 08:41:28;;;;;;;10.20;5.20;;;-0.70;99.90;;;;;;7385274;19;20292;-77
2022/01/18 08:43:53;;;;;;;15.00;5.60;;;-0.70;99.90;;;;;;7383841;19;20321;-76
2022/01/18 08:46:20;;;;;;;13.80;5.77;;;-0.60;99.90;;;;;;7386025;19;20338;-75
2022/01/18 08:48:45;;;;;;;8.13;5.77;;;-0.50;99.90;;;;;;7386561;19;20759;-76
2022/01/18 08:51:11;;;;;;;9.87;4.80;;;-0.50;99.90;;;;;;7382948;19;20332;-75
2022/01/18 08:53:37;;;;;;;10.27;3.90;;;-0.40;99.90;;;;;;7381810;19;20332;-76
2022/01/18 08:56:06;;;;;;;8.50;4.07;;;-0.40;99.90;;;;;;7381118;19;20700;-77
2022/01/18 08:58:34;;;;;;;6.07;3.88;;;-0.30;99.90;;;;;;7388244;19;20329;-76
2022/01/18 09:01:02;;;;;;;16.20;9.52;;;-0.20;99.90;;;;;;7391375;19;20928;-75
2022/01/18 09:03:28;;;;;;;7.65;4.07;;;-0.20;99.90;;;;;;7390085;19;20371;-75
2022/01/18 09:05:56;;;;;;;5.95;3.47;;;-0.10;99.90;;;;;;7390139;19;20867;-76
2022/01/18 09:08:22;;;;;;;6.88;3.13;;;-0.10;99.90;;;;;;7392433;19;20308;-77
2022/01/18 09:10:48;;;;;;;10.73;4.10;;;0.00;99.90;;;;;;7390529;19;20311;-77
2022/01/18 09:13:14;;;;;;;7.37;3.47;;;0.00;99.90;;;;;;7385543;19;20317;-77
2022/01/18 09:15:41;;;;;;;12.73;4.03;;;0.10;99.90;;;;;;7389895;19;20942;-77
2022/01/18 09:18:07;;;;;;;9.20;4.75;;;0.10;99.90;;;;;;7388956;19;20337;-77
2022/01/18 09:20:32;;;;;;;5.87;3.47;;;0.20;99.90;;;;;;7386527;19;20329;-77
2022/01/18 09:22:58;;;;;;;7.57;3.70;;;0.20;99.90;;;;;;7387284;19;20398;-77
2022/01/18 09:25:28;;;;;;;10.52;3.70;;;0.40;99.90;;;;;;7385527;19;20328;-78
2022/01/18 09:27:54;;;;;;;7.43;3.90;;;0.40;99.90;;;;;;7388705;19;20863;-77
2022/01/18 09:30:20;;;;;;;5.45;3.28;;;0.40;99.90;;;;;;7390798;19;20304;-77
2022/01/18 09:32:46;;;;;;;7.07;3.40;;;0.50;99.90;;;;;;7386897;19;20309;-77
2022/01/18 09:35:12;;;;;;;9.52;3.50;;;0.50;99.90;;;;;;7385174;19;20317;-78
2022/01/18 09:37:38;;;;;;;6.43;3.60;;;0.60;99.90;;;;;;7387613;19;20863;-77
2022/01/18 09:40:05;;;;;;;8.15;3.42;;;0.60;99.90;;;;;;7387132;19;20328;-77
2022/01/18 09:42:36;;;;;;;6.57;3.45;;;0.70;99.90;;;;;;7387374;19;20368;-78
2022/01/18 09:45:03;;;;;;;5.97;3.10;;;0.80;99.90;;;;;;7388067;19;20346;-78
2022/01/18 09:47:29;;;;;;;9.35;3.35;;;0.80;99.90;;;;;;7389804;19;20365;-76
2022/01/18 09:49:57;;;;;;;7.90;3.73;;;0.90;99.90;;;;;;7387923;19;20352;-77
2022/01/18 09:52:22;;;;;;;8.30;3.40;;;0.90;99.90;;;;;;7389926;19;20309;-78
2022/01/18 09:54:48;;;;;;;10.38;4.28;;;1.10;99.90;;;;;;7390999;19;20327;-77
2022/01/18 09:57:14;;;;;;;7.23;3.33;;;1.00;99.90;;;;;;7390921;19;20872;-76
2022/01/18 09:59:40;;;;;;;9.63;3.60;;;1.10;99.90;;;;;;7387663;19;20409;-77
2022/01/18 10:02:09;;;;;;;7.70;3.53;;;1.20;99.90;;;;;;7387084;19;20424;-76
2022/01/18 10:04:44;;;;;;;6.10;3.45;;;1.20;99.90;;;;;;7388384;19;20312;-76
2022/01/18 10:07:10;;;;;;;8.00;3.30;;;1.20;99.90;;;;;;7287709;19;2004616;-76
2022/01/18 10:09:36;;;;;;;7.32;3.40;;;1.30;99.90;;;;;;7385558;19;20354;-75
2022/01/18 10:12:08;;;;;;;10.77;3.92;;;1.40;99.90;;;;;;7388330;19;20389;-76
2022/01/18 10:14:35;;;;;;;6.18;3.40;;;1.40;99.90;;;;;;7386690;19;20301;-75
2022/01/18 10:17:01;;;;;;;6.85;3.67;;;1.50;99.90;;;;;;7385031;19;20321;-76
2022/01/18 10:19:30;;;;;;;4.77;2.83;;;1.60;99.90;;;;;;7386705;19;20324;-77
2022/01/18 10:22:06;;;;;;;7.85;3.53;;;1.70;99.90;;;;;;7384726;19;20305;-76
2022/01/18 10:24:32;;;;;;;8.05;4.40;;;1.70;99.90;;;;;;7385143;19;20658;-76
2022/01/18 10:26:58;;;;;;;11.75;5.78;;;1.80;99.90;;;;;;7385787;19;20692;-76
2022/01/18 10:29:37;;;;;;;9.32;3.67;;;1.90;99.90;;;;;;7385733;19;20691;-75
2022/01/18 10:35:09;;;;;;;5.53;3.58;;;2.10;99.90;;;;;;7283016;19;2004650;-76
2022/01/18 10:37:41;;;;;;;5.40;3.53;;;2.20;99.90;;;;;;7384356;19;20329;-76
2022/01/18 10:40:16;;;;;;;9.00;3.17;;;2.30;99.90;;;;;;7386150;19;20312;-76
2022/01/18 10:42:51;;;;;;;3.90;2.83;;;2.30;99.90;;;;;;7386739;19;20892;-76
2022/01/18 10:45:31;;;;;;;8.35;3.20;;;2.30;99.90;;;;;;7386914;19;20372;-76
2022/01/18 10:48:02;;;;;;;3.72;2.67;;;2.40;99.90;;;;;;7385919;19;20412;-76
2022/01/18 10:50:35;;;;;;;4.32;3.20;;;2.50;99.90;;;;;;7384777;19;20348;-76
2022/01/18 10:53:15;;;;;;;8.98;3.70;;;2.60;99.90;;;;;;7386473;19;20337;-76
2022/01/18 10:55:41;;;;;;;4.70;2.83;;;2.60;99.90;;;;;;7386920;19;20345;-77
2022/01/18 10:58:11;;;;;;;5.27;2.87;;;2.60;99.90;;;;;;7387194;19;20301;-77
2022/01/18 11:00:38;;;;;;;6.57;3.20;;;2.70;99.90;;;;;;7384633;19;20316;-76
2022/01/18 11:03:04;;;;;;;5.80;3.33;;;2.80;99.90;;;;;;7384387;19;20351;-76
2022/01/18 11:05:31;;;;;;;8.27;2.90;;;2.90;99.90;;;;;;7386565;19;20757;-76
2022/01/18 11:08:00;;;;;;;7.40;2.93;;;2.90;99.90;;;;;;7384325;19;20829;-76
2022/01/18 11:10:30;;;;;;;4.57;2.73;;;3.00;99.90;;;;;;7384354;19;20313;-76
2022/01/18 11:13:03;;;;;;;6.93;3.23;;;3.10;99.90;;;;;;7385982;19;20308;-76
2022/01/18 11:15:33;;;;;;;7.30;2.83;;;3.20;99.90;;;;;;7382697;19;20685;-77
2022/01/18 11:18:02;;;;;;;4.53;2.23;;;3.30;99.90;;;;;;7387601;19;20376;-76
2022/01/18 11:20:32;;;;;;;6.93;2.88;;;3.30;99.90;;;;;;7370831;19;20319;-77
2022/01/18 11:22:57;;;;;;;6.13;2.58;;;3.40;99.90;;;;;;7384824;19;21109;-75
2022/01/18 11:25:23;;;;;;;5.77;3.10;;;3.60;99.90;;;;;;7384836;19;20318;-75
2022/01/18 11:27:51;;;;;;;4.90;2.90;;;3.60;99.90;;;;;;7386271;19;20301;-75
2022/01/18 11:30:17;;;;;;;6.13;2.63;;;3.80;99.90;;;;;;7385245;19;20313;-75
2022/01/18 11:32:44;;;;;;;6.07;3.53;;;3.90;99.90;;;;;;7388002;19;20324;-75
2022/01/18 11:35:44;;;;;;;19.48;9.23;;;3.90;99.90;;;;;;7383316;19;20316;-76
2022/01/18 11:38:36;;;;;;;12.45;6.47;;;4.00;99.90;;;;;;7282671;19;2024563;-76
2022/01/18 11:41:02;;;;;;;6.03;2.92;;;4.10;99.90;;;;;;7383393;19;20631;-75
2022/01/18 11:43:33;;;;;;;6.00;2.70;;;4.00;99.90;;;;;;7383496;19;20301;-76
2022/01/18 11:45:58;;;;;;;4.65;2.67;;;4.10;99.90;;;;;;7385456;19;20700;-76
2022/01/18 11:48:25;;;;;;;7.88;2.90;;;4.20;99.90;;;;;;7385470;19;20297;-76
2022/01/18 11:51:05;;;;;;;4.82;2.67;;;4.30;99.90;;;;;;7384518;19;20304;-76
2022/01/18 11:54:18;;;;;;;10.85;3.22;;;4.40;99.90;;;;;;7383693;19;20313;-76
2022/01/18 11:56:36;;;;;;;6.35;2.88;;;4.50;99.90;;;;;;7284526;19;2004375;-76
2022/01/18 11:59:27;;;;;;;6.43;2.90;;;4.50;99.90;;;;;;7282641;19;2020057;-77
2022/01/18 12:01:57;;;;;;;9.13;3.10;;;4.50;99.90;;;;;;7281802;19;2004375;-76
2022/01/18 12:04:40;;;;;;;6.40;2.60;;;4.60;99.90;;;;;;7382201;19;20320;-76
2022/01/18 12:07:09;;;;;;;8.55;3.00;;;4.50;99.90;;;;;;7383963;19;20342;-76
2022/01/18 12:09:41;;;;;;;5.43;2.80;;;4.50;99.90;;;;;;7384195;19;20301;-76
2022/01/18 12:12:41;;;;;;;2.35;2.03;;;4.50;99.90;;;;;;7383661;19;20354;-76
2022/01/18 12:15:38;;;;;;;6.55;3.40;;;4.40;99.90;;;;;;7260517;19;2004859;-76
2022/01/18 12:18:20;;;;;;;5.50;2.92;;;4.40;99.90;;;;;;7190667;19;2004512;-76
2022/01/18 12:20:48;;;;;;;6.43;2.38;;;4.50;99.90;;;;;;7381088;19;20348;-76
2022/01/18 12:23:14;;;;;;;7.15;2.55;;;4.50;99.90;;;;;;7380310;19;20340;-77
2022/01/18 12:25:57;;;;;;;4.32;2.45;;;4.40;99.90;;;;;;7383348;19;20339;-76
2022/01/18 12:34:32;;;;;;;4.75;2.42;;;4.60;99.90;;;;;;7278517;19;2004576;-76
2022/01/18 12:37:07;;;;;;;5.07;2.63;;;4.50;99.90;;;;;;7280935;19;2004406;-76
2022/01/18 12:45:20;;;;;;;4.55;2.67;;;4.60;99.90;;;;;;7381903;19;20340;-76
2022/01/18 12:47:52;;;;;;;10.02;2.78;;;4.70;99.90;;;;;;7281038;19;2005460;-76
2022/01/18 12:50:22;;;;;;;5.95;2.50;;;4.60;99.90;;;;;;7384585;19;20300;-76
2022/01/18 12:52:52;;;;;;;4.57;2.30;;;4.60;99.90;;;;;;7381087;19;20301;-76
2022/01/18 12:55:36;;;;;;;2.20;2.00;;;4.50;99.90;;;;;;7379202;19;20412;-78
2022/01/18 12:58:08;;;;;;;4.25;2.30;;;4.50;99.90;;;;;;7382162;19;20341;-78
2022/01/18 13:01:08;;;;;;;9.93;2.50;;;4.40;99.90;;;;;;7359684;19;20323;-76
2022/01/18 13:03:41;;;;;;;5.18;2.45;;;4.40;99.90;;;;;;7263801;19;2004233;-76
2022/01/18 13:06:15;;;;;;;6.88;2.40;;;4.30;99.90;;;;;;7280675;19;2004501;-77
2022/01/18 13:08:58;;;;;;;5.13;2.55;;;4.30;99.90;;;;;;7383964;19;20387;-77
2022/01/18 13:11:25;;;;;;;3.53;2.50;;;4.30;99.90;;;;;;7272971;19;2004493;-76
2022/01/18 13:14:04;;;;;;;3.72;2.35;;;4.40;99.90;;;;;;7378453;19;20329;-77
2022/01/18 13:27:22;;;;;;;5.38;1.98;;;4.40;99.90;;;;;;7279728;19;2004616;-77
2022/01/18 13:29:50;;;;;;;4.95;2.40;;;4.40;99.90;;;;;;7279599;19;2005919;-76
2022/01/18 13:32:19;;;;;;;4.57;2.00;;;4.40;99.90;;;;;;7381762;19;20336;-77
2022/01/18 13:34:49;;;;;;;4.32;2.13;;;4.40;99.90;;;;;;7380211;19;20317;-76
2022/01/18 13:37:16;;;;;;;3.38;1.90;;;4.40;99.90;;;;;;7381689;19;20300;-78
2022/01/18 13:39:50;;;;;;;4.05;1.83;;;4.30;99.90;;;;;;7381261;19;20300;-78
2022/01/18 13:42:17;;;;;;;7.28;4.30;;;4.40;99.90;;;;;;7383540;19;20409;-77
2022/01/18 13:45:16;;;;;;;3.08;1.83;;;4.40;99.90;;;;;;7387767;19;20320;-76
2022/01/18 13:47:49;;;;;;;4.60;1.67;;;4.40;99.90;;;;;;7286718;19;2004584;-77
2022/01/18 13:50:46;;;;;;;3.33;1.73;;;4.40;99.90;;;;;;7286637;19;2004433;-78
2022/01/18 13:53:30;;;;;;;2.50;1.63;;;4.40;99.90;;;;;;7286348;19;2004336;-77
2022/01/18 13:56:17;;;;;;;4.27;1.70;;;4.40;99.90;;;;;;7387717;19;20327;-77
2022/01/18 13:58:48;;;;;;;3.97;1.80;;;4.40;99.90;;;;;;7285675;19;2004555;-77
2022/01/18 14:01:23;;;;;;;2.80;1.60;;;4.40;99.90;;;;;;7385812;19;20300;-77
2022/01/18 14:03:50;;;;;;;7.10;2.13;;;4.30;99.90;;;;;;7388470;19;20309;-77
2022/01/18 14:06:17;;;;;;;1.88;1.55;;;4.30;99.90;;;;;;7366205;19;20348;-77
2022/01/18 14:08:48;;;;;;;2.92;1.58;;;4.30;99.90;;;;;;7387042;19;20321;-78
2022/01/18 14:11:19;;;;;;;3.13;1.77;;;4.20;99.90;;;;;;7387143;19;21135;-76
2022/01/18 14:13:45;;;;;;;3.55;1.90;;;4.20;99.90;;;;;;7386830;19;20312;-77
2022/01/18 14:16:32;;;;;;;3.08;1.67;;;4.20;99.90;;;;;;7386400;19;20934;-77
2022/01/18 14:19:08;;;;;;;6.38;1.98;;;4.20;99.90;;;;;;7387218;19;20703;-77
2022/01/18 14:21:44;;;;;;;2.55;1.75;;;4.10;99.90;;;;;;7387050;19;20300;-77
2022/01/18 14:24:11;;;;;;;3.15;1.80;;;4.10;99.90;;;;;;7386500;19;20679;-77
2022/01/18 14:26:53;;;;;;;5.13;2.00;;;4.10;99.90;;;;;;7387252;19;20689;-78
2022/01/18 14:29:29;;;;;;;2.22;1.63;;;4.10;99.90;;;;;;7387557;19;20335;-77